sensor_id;sensor_type;location;lat;lon;timestamp;temperature;humidity
14079;DHT22;7115;50.150;8.568;2023-05-10T00:01:35;15.50;99.90
14079;DHT22;7115;50.150;8.568;2023-05-10T00:04:04;15.50;99.90
14079;DHT22;7115;50.150;8.568;2023-05-10T00:06:31;15.50;99.90
14079;DHT22;7115;50.150;8.568;2023-05-10T00:08:59;15.40;99.90
14079;DHT22;7115;50.150;8.568;2023-05-10T00:11:26;15.40;99.90
14079;DHT22;7115;50.150;8.568;2023-05-10T00:13:52;15.30;99.90
14079;DHT22;7115;50.150;8.568;2023-05-10T00:16:19;15.30;99.90
14079;DHT22;7115;50.150;8.568;2023-05-10T00:18:46;15.20;99.90
14079;DHT22;7115;50.150;8.568;2023-05-10T00:21:14;15.20;99.90
14079;DHT22;7115;50.150;8.568;2023-05-10T00:23:41;15.10;99.90
14079;DHT22;7115;50.150;8.568;2023-05-10T00:26:08;15.10;99.90
14079;DHT22;7115;50.150;8.568;2023-05-10T00:28:35;15.10;99.90
14079;DHT22;7115;50.150;8.568;2023-05-10T00:31:02;15.00;99.90
14079;DHT22;7115;50.150;8.568;2023-05-10T00:33:29;15.00;99.90
14079;DHT22;7115;50.150;8.568;2023-05-10T00:35:56;15.00;99.90
14079;DHT22;7115;50.150;8.568;2023-05-10T00:38:24;15.00;99.90
14079;DHT22;7115;50.150;8.568;2023-05-10T00:40:51;14.90;99.90
14079;DHT22;7115;50.150;8.568;2023-05-10T00:43:17;14.90;99.90
14079;DHT22;7115;50.150;8.568;2023-05-10T00:45:44;14.90;99.90
14079;DHT22;7115;50.150;8.568;2023-05-10T00:48:12;14.80;99.90
14079;DHT22;7115;50.150;8.568;2023-05-10T00:50:39;14.80;99.90
14079;DHT22;7115;50.150;8.568;2023-05-10T00:53:07;14.80;99.90
14079;DHT22;7115;50.150;8.568;2023-05-10T00:55:36;14.70;99.90
14079;DHT22;7115;50.150;8.568;2023-05-10T00:58:04;14.70;99.90
14079;DHT22;7115;50.150;8.568;2023-05-10T01:00:32;14.70;99.90
14079;DHT22;7115;50.150;8.568;2023-05-10T01:03:00;14.70;99.90
14079;DHT22;7115;50.150;8.568;2023-05-10T01:05:27;14.70;99.90
14079;DHT22;7115;50.150;8.568;2023-05-10T01:07:54;14.70;99.90
14079;DHT22;7115;50.150;8.568;2023-05-10T01:10:21;14.70;99.90
14079;DHT22;7115;50.150;8.568;2023-05-10T01:12:50;14.60;99.90
14079;DHT22;7115;50.150;8.568;2023-05-10T01:15:18;14.60;99.90
14079;DHT22;7115;50.150;8.568;2023-05-10T01:17:46;14.60;99.90
14079;DHT22;7115;50.150;8.568;2023-05-10T01:20:14;14.60;99.90
14079;DHT22;7115;50.150;8.568;2023-05-10T01:22:57;14.60;99.90
14079;DHT22;7115;50.150;8.568;2023-05-10T01:25:46;14.60;99.90
14079;DHT22;7115;50.150;8.568;2023-05-10T01:29:00;14.50;99.90
14079;DHT22;7115;50.150;8.568;2023-05-10T01:31:50;14.50;99.90
14079;DHT22;7115;50.150;8.568;2023-05-10T01:34:23;14.40;99.90
14079;DHT22;7115;50.150;8.568;2023-05-10T01:36:56;14.40;99.90
14079;DHT22;7115;50.150;8.568;2023-05-10T01:39:32;14.40;99.90
14079;DHT22;7115;50.150;8.568;2023-05-10T01:42:07;14.30;99.90
14079;DHT22;7115;50.150;8.568;2023-05-10T01:44:39;14.30;99.90
14079;DHT22;7115;50.150;8.568;2023-05-10T01:47:10;14.30;99.90
14079;DHT22;7115;50.150;8.568;2023-05-10T01:49:42;14.30;99.90
14079;DHT22;7115;50.150;8.568;2023-05-10T01:52:12;14.30;99.90
14079;DHT22;7115;50.150;8.568;2023-05-10T01:54:44;14.30;99.90
14079;DHT22;7115;50.150;8.568;2023-05-10T01:57:14;14.30;99.90
14079;DHT22;7115;50.150;8.568;2023-05-10T01:59:43;14.30;99.90
14079;DHT22;7115;50.150;8.568;2023-05-10T02:02:14;14.30;99.90
14079;DHT22;7115;50.150;8.568;2023-05-10T02:04:42;14.30;99.90
14079;DHT22;7115;50.150;8.568;2023-05-10T02:07:10;14.30;99.90
14079;DHT22;7115;50.150;8.568;2023-05-10T02:09:38;14.30;99.90
14079;DHT22;7115;50.150;8.568;2023-05-10T02:12:06;14.30;99.90
14079;DHT22;7115;50.150;8.568;2023-05-10T02:14:36;14.30;99.90
14079;DHT22;7115;50.150;8.568;2023-05-10T02:17:05;14.30;99.90
14079;DHT22;7115;50.150;8.568;2023-05-10T02:19:34;14.30;99.90
14079;DHT22;7115;50.150;8.568;2023-05-10T02:22:03;14.30;99.90
14079;DHT22;7115;50.150;8.568;2023-05-10T02:24:31;14.30;99.90
14079;DHT22;7115;50.150;8.568;2023-05-10T02:26:59;14.30;99.90
14079;DHT22;7115;50.150;8.568;2023-05-10T02:29:27;14.30;99.90
14079;DHT22;7115;50.150;8.568;2023-05-10T02:31:55;14.30;99.90
14079;DHT22;7115;50.150;8.568;2023-05-10T02:34:23;14.30;99.90
14079;DHT22;7115;50.150;8.568;2023-05-10T02:36:53;14.20;99.90
14079;DHT22;7115;50.150;8.568;2023-05-10T02:39:22;14.20;99.90
14079;DHT22;7115;50.150;8.568;2023-05-10T02:41:50;14.20;99.90
14079;DHT22;7115;50.150;8.568;2023-05-10T02:44:19;14.20;99.90
14079;DHT22;7115;50.150;8.568;2023-05-10T02:46:47;14.20;99.90
14079;DHT22;7115;50.150;8.568;2023-05-10T02:49:14;14.20;99.90
14079;DHT22;7115;50.150;8.568;2023-05-10T02:51:44;14.10;99.90
14079;DHT22;7115;50.150;8.568;2023-05-10T02:54:18;14.10;99.90
14079;DHT22;7115;50.150;8.568;2023-05-10T02:56:51;14.10;99.90
14079;DHT22;7115;50.150;8.568;2023-05-10T02:59:20;14.10;99.90
14079;DHT22;7115;50.150;8.568;2023-05-10T03:01:47;14.10;99.90
14079;DHT22;7115;50.150;8.568;2023-05-10T03:04:14;14.10;99.90
14079;DHT22;7115;50.150;8.568;2023-05-10T03:06:41;14.10;99.90
14079;DHT22;7115;50.150;8.568;2023-05-10T03:09:09;14.10;99.90
14079;DHT22;7115;50.150;8.568;2023-05-10T03:11:47;14.10;99.90
14079;DHT22;7115;50.150;8.568;2023-05-10T03:14:21;14.10;99.90
14079;DHT22;7115;50.150;8.568;2023-05-10T03:16:56;14.20;99.90
14079;DHT22;7115;50.150;8.568;2023-05-10T03:19:27;14.20;99.90
14079;DHT22;7115;50.150;8.568;2023-05-10T03:21:59;14.10;99.90
14079;DHT22;7115;50.150;8.568;2023-05-10T03:24:28;14.10;99.90
14079;DHT22;7115;50.150;8.568;2023-05-10T03:26:59;14.10;99.90
14079;DHT22;7115;50.150;8.568;2023-05-10T03:29:30;14.10;99.90
14079;DHT22;7115;50.150;8.568;2023-05-10T03:31:58;14.00;99.90
14079;DHT22;7115;50.150;8.568;2023-05-10T03:34:25;14.00;99.90
14079;DHT22;7115;50.150;8.568;2023-05-10T03:36:52;13.90;99.90
14079;DHT22;7115;50.150;8.568;2023-05-10T03:39:19;13.90;99.90
14079;DHT22;7115;50.150;8.568;2023-05-10T03:41:47;13.90;99.90
14079;DHT22;7115;50.150;8.568;2023-05-10T03:44:16;13.90;99.90
14079;DHT22;7115;50.150;8.568;2023-05-10T03:46:43;13.80;99.90
14079;DHT22;7115;50.150;8.568;2023-05-10T03:49:09;13.80;99.90
14079;DHT22;7115;50.150;8.568;2023-05-10T03:51:36;13.80;99.90
14079;DHT22;7115;50.150;8.568;2023-05-10T03:54:03;13.80;99.90
14079;DHT22;7115;50.150;8.568;2023-05-10T03:56:30;13.90;99.90
14079;DHT22;7115;50.150;8.568;2023-05-10T03:58:57;13.90;99.90
14079;DHT22;7115;50.150;8.568;2023-05-10T04:01:25;13.90;99.90
14079;DHT22;7115;50.150;8.568;2023-05-10T04:03:52;13.90;99.90
14079;DHT22;7115;50.150;8.568;2023-05-10T04:06:19;13.90;99.90
14079;DHT22;7115;50.150;8.568;2023-05-10T04:08:46;13.90;99.90
14079;DHT22;7115;50.150;8.568;2023-05-10T04:11:13;13.90;99.90
14079;DHT22;7115;50.150;8.568;2023-05-10T04:13:40;13.90;99.90
14079;DHT22;7115;50.150;8.568;2023-05-10T04:16:07;14.00;99.90
14079;DHT22;7115;50.150;8.568;2023-05-10T04:18:36;14.00;99.90
14079;DHT22;7115;50.150;8.568;2023-05-10T04:21:03;14.00;99.90
14079;DHT22;7115;50.150;8.568;2023-05-10T04:23:29;14.10;99.90
14079;DHT22;7115;50.150;8.568;2023-05-10T04:26:00;14.10;99.90
14079;DHT22;7115;50.150;8.568;2023-05-10T04:28:27;14.10;99.90
14079;DHT22;7115;50.150;8.568;2023-05-10T04:31:00;14.20;99.90
14079;DHT22;7115;50.150;8.568;2023-05-10T04:33:28;14.20;99.90
14079;DHT22;7115;50.150;8.568;2023-05-10T04:35:56;14.20;99.90
14079;DHT22;7115;50.150;8.568;2023-05-10T04:38:23;14.20;99.90
14079;DHT22;7115;50.150;8.568;2023-05-10T04:40:51;14.30;99.90
14079;DHT22;7115;50.150;8.568;2023-05-10T04:43:18;14.30;99.90
14079;DHT22;7115;50.150;8.568;2023-05-10T04:45:45;14.30;99.90
14079;DHT22;7115;50.150;8.568;2023-05-10T04:48:11;14.30;99.90
14079;DHT22;7115;50.150;8.568;2023-05-10T04:50:39;14.30;99.90
14079;DHT22;7115;50.150;8.568;2023-05-10T04:53:07;14.30;99.90
14079;DHT22;7115;50.150;8.568;2023-05-10T04:55:34;14.30;99.90
14079;DHT22;7115;50.150;8.568;2023-05-10T04:58:02;14.40;99.90
14079;DHT22;7115;50.150;8.568;2023-05-10T05:00:29;14.40;99.90
14079;DHT22;7115;50.150;8.568;2023-05-10T05:02:56;14.40;99.90
14079;DHT22;7115;50.150;8.568;2023-05-10T05:05:23;14.40;99.90
14079;DHT22;7115;50.150;8.568;2023-05-10T05:07:50;14.40;99.90
14079;DHT22;7115;50.150;8.568;2023-05-10T05:10:18;14.40;99.90
14079;DHT22;7115;50.150;8.568;2023-05-10T05:12:45;14.40;99.90
14079;DHT22;7115;50.150;8.568;2023-05-10T05:15:12;14.40;99.90
14079;DHT22;7115;50.150;8.568;2023-05-10T05:17:39;14.40;99.90
14079;DHT22;7115;50.150;8.568;2023-05-10T05:20:07;14.40;99.90
14079;DHT22;7115;50.150;8.568;2023-05-10T05:22:35;14.40;99.90
14079;DHT22;7115;50.150;8.568;2023-05-10T05:25:02;14.40;99.90
14079;DHT22;7115;50.150;8.568;2023-05-10T05:27:31;14.40;99.90
14079;DHT22;7115;50.150;8.568;2023-05-10T05:29:58;14.40;99.90
14079;DHT22;7115;50.150;8.568;2023-05-10T05:32:25;14.40;99.90
14079;DHT22;7115;50.150;8.568;2023-05-10T05:34:52;14.40;99.90
14079;DHT22;7115;50.150;8.568;2023-05-10T05:37:20;14.40;99.90
14079;DHT22;7115;50.150;8.568;2023-05-10T05:39:48;14.40;99.90
14079;DHT22;7115;50.150;8.568;2023-05-10T05:42:15;14.40;99.90
14079;DHT22;7115;50.150;8.568;2023-05-10T05:44:45;14.40;99.90
14079;DHT22;7115;50.150;8.568;2023-05-10T05:47:12;14.40;99.90
14079;DHT22;7115;50.150;8.568;2023-05-10T05:49:39;14.40;99.90
14079;DHT22;7115;50.150;8.568;2023-05-10T05:52:06;14.50;99.90
14079;DHT22;7115;50.150;8.568;2023-05-10T05:54:33;14.50;99.90
14079;DHT22;7115;50.150;8.568;2023-05-10T05:57:00;14.40;99.90
14079;DHT22;7115;50.150;8.568;2023-05-10T05:59:28;14.50;99.90
14079;DHT22;7115;50.150;8.568;2023-05-10T06:01:56;14.60;99.90
14079;DHT22;7115;50.150;8.568;2023-05-10T06:04:23;14.50;99.90
14079;DHT22;7115;50.150;8.568;2023-05-10T06:06:50;14.60;99.90
14079;DHT22;7115;50.150;8.568;2023-05-10T06:09:16;14.60;99.90
14079;DHT22;7115;50.150;8.568;2023-05-10T06:11:43;14.60;99.90
14079;DHT22;7115;50.150;8.568;2023-05-10T06:14:10;14.60;99.90
14079;DHT22;7115;50.150;8.568;2023-05-10T06:16:37;14.70;99.90
14079;DHT22;7115;50.150;8.568;2023-05-10T06:19:05;14.70;99.90
14079;DHT22;7115;50.150;8.568;2023-05-10T06:21:33;14.80;99.90
14079;DHT22;7115;50.150;8.568;2023-05-10T06:24:00;14.90;99.90
14079;DHT22;7115;50.150;8.568;2023-05-10T06:26:26;14.80;99.90
14079;DHT22;7115;50.150;8.568;2023-05-10T06:28:53;14.90;99.90
14079;DHT22;7115;50.150;8.568;2023-05-10T06:31:20;14.80;99.90
14079;DHT22;7115;50.150;8.568;2023-05-10T06:33:47;14.90;99.90
14079;DHT22;7115;50.150;8.568;2023-05-10T06:36:15;14.90;99.90
14079;DHT22;7115;50.150;8.568;2023-05-10T06:38:42;14.90;99.90
14079;DHT22;7115;50.150;8.568;2023-05-10T06:41:09;14.90;99.90
14079;DHT22;7115;50.150;8.568;2023-05-10T06:43:36;14.90;99.90
14079;DHT22;7115;50.150;8.568;2023-05-10T06:46:06;14.90;99.90
14079;DHT22;7115;50.150;8.568;2023-05-10T06:48:33;15.00;99.90
14079;DHT22;7115;50.150;8.568;2023-05-10T06:51:00;15.00;99.90
14079;DHT22;7115;50.150;8.568;2023-05-10T06:53:29;15.10;99.90
14079;DHT22;7115;50.150;8.568;2023-05-10T06:55:56;15.10;99.90
14079;DHT22;7115;50.150;8.568;2023-05-10T06:58:23;15.10;99.90
14079;DHT22;7115;50.150;8.568;2023-05-10T07:00:50;15.10;99.90
14079;DHT22;7115;50.150;8.568;2023-05-10T07:03:17;15.20;99.90
14079;DHT22;7115;50.150;8.568;2023-05-10T07:05:44;15.20;99.90
14079;DHT22;7115;50.150;8.568;2023-05-10T07:08:11;15.20;99.90
14079;DHT22;7115;50.150;8.568;2023-05-10T07:10:41;15.30;99.90
14079;DHT22;7115;50.150;8.568;2023-05-10T07:13:08;15.30;99.90
14079;DHT22;7115;50.150;8.568;2023-05-10T07:15:35;15.30;99.90
14079;DHT22;7115;50.150;8.568;2023-05-10T07:18:03;15.30;99.90
14079;DHT22;7115;50.150;8.568;2023-05-10T07:20:34;15.40;99.90
14079;DHT22;7115;50.150;8.568;2023-05-10T07:23:01;15.40;99.90
14079;DHT22;7115;50.150;8.568;2023-05-10T07:25:29;15.40;99.90
14079;DHT22;7115;50.150;8.568;2023-05-10T07:27:57;15.40;99.90
14079;DHT22;7115;50.150;8.568;2023-05-10T07:30:25;15.30;99.90
14079;DHT22;7115;50.150;8.568;2023-05-10T07:32:52;15.30;99.90
14079;DHT22;7115;50.150;8.568;2023-05-10T07:35:20;15.30;99.90
14079;DHT22;7115;50.150;8.568;2023-05-10T07:37:48;15.30;99.90
14079;DHT22;7115;50.150;8.568;2023-05-10T07:40:16;15.30;99.90
14079;DHT22;7115;50.150;8.568;2023-05-10T07:42:43;15.30;99.90
14079;DHT22;7115;50.150;8.568;2023-05-10T07:45:12;15.30;99.90
14079;DHT22;7115;50.150;8.568;2023-05-10T07:47:39;15.30;99.90
14079;DHT22;7115;50.150;8.568;2023-05-10T07:50:07;15.30;99.90
14079;DHT22;7115;50.150;8.568;2023-05-10T07:52:34;15.40;99.90
14079;DHT22;7115;50.150;8.568;2023-05-10T07:55:01;15.40;99.90
14079;DHT22;7115;50.150;8.568;2023-05-10T07:57:29;15.50;99.90
14079;DHT22;7115;50.150;8.568;2023-05-10T07:59:56;15.60;99.90
14079;DHT22;7115;50.150;8.568;2023-05-10T08:02:24;15.60;99.90
14079;DHT22;7115;50.150;8.568;2023-05-10T08:04:52;15.70;99.90
14079;DHT22;7115;50.150;8.568;2023-05-10T08:07:19;15.70;99.90
14079;DHT22;7115;50.150;8.568;2023-05-10T08:09:46;15.80;99.90
14079;DHT22;7115;50.150;8.568;2023-05-10T08:12:13;15.90;99.90
14079;DHT22;7115;50.150;8.568;2023-05-10T08:14:40;16.00;99.90
14079;DHT22;7115;50.150;8.568;2023-05-10T08:17:08;16.00;99.90
14079;DHT22;7115;50.150;8.568;2023-05-10T08:19:38;16.10;99.90
14079;DHT22;7115;50.150;8.568;2023-05-10T08:22:05;16.10;99.90
14079;DHT22;7115;50.150;8.568;2023-05-10T08:24:33;16.10;99.90
14079;DHT22;7115;50.150;8.568;2023-05-10T08:27:05;16.10;99.90
14079;DHT22;7115;50.150;8.568;2023-05-10T08:29:32;16.10;99.90
14079;DHT22;7115;50.150;8.568;2023-05-10T08:32:01;16.20;99.90
14079;DHT22;7115;50.150;8.568;2023-05-10T08:34:28;16.20;99.90
14079;DHT22;7115;50.150;8.568;2023-05-10T08:36:56;16.20;99.90
14079;DHT22;7115;50.150;8.568;2023-05-10T08:39:23;16.20;99.90
14079;DHT22;7115;50.150;8.568;2023-05-10T08:41:58;16.20;99.90
14079;DHT22;7115;50.150;8.568;2023-05-10T08:44:28;16.20;99.90
14079;DHT22;7115;50.150;8.568;2023-05-10T08:46:55;16.20;99.90
14079;DHT22;7115;50.150;8.568;2023-05-10T08:49:25;16.20;99.90
14079;DHT22;7115;50.150;8.568;2023-05-10T08:51:57;16.10;99.90
14079;DHT22;7115;50.150;8.568;2023-05-10T08:54:24;16.10;99.90
14079;DHT22;7115;50.150;8.568;2023-05-10T08:56:51;16.00;99.90
14079;DHT22;7115;50.150;8.568;2023-05-10T08:59:19;16.00;99.90
14079;DHT22;7115;50.150;8.568;2023-05-10T09:01:47;16.00;99.90
14079;DHT22;7115;50.150;8.568;2023-05-10T09:04:15;16.00;99.90
14079;DHT22;7115;50.150;8.568;2023-05-10T09:06:43;16.00;99.90
14079;DHT22;7115;50.150;8.568;2023-05-10T09:09:12;16.10;99.90
14079;DHT22;7115;50.150;8.568;2023-05-10T09:11:39;16.20;99.90
14079;DHT22;7115;50.150;8.568;2023-05-10T09:14:06;16.30;99.90
14079;DHT22;7115;50.150;8.568;2023-05-10T09:16:33;16.40;99.90
14079;DHT22;7115;50.150;8.568;2023-05-10T09:19:01;16.50;99.90
14079;DHT22;7115;50.150;8.568;2023-05-10T09:21:28;16.60;99.90
14079;DHT22;7115;50.150;8.568;2023-05-10T09:23:55;16.80;99.90
14079;DHT22;7115;50.150;8.568;2023-05-10T09:26:24;16.90;99.90
14079;DHT22;7115;50.150;8.568;2023-05-10T09:28:53;17.00;99.90
14079;DHT22;7115;50.150;8.568;2023-05-10T09:31:20;17.10;99.90
14079;DHT22;7115;50.150;8.568;2023-05-10T09:33:48;17.20;99.90
14079;DHT22;7115;50.150;8.568;2023-05-10T09:36:16;17.30;99.90
14079;DHT22;7115;50.150;8.568;2023-05-10T09:38:50;17.40;99.90
14079;DHT22;7115;50.150;8.568;2023-05-10T09:41:19;17.50;99.90
14079;DHT22;7115;50.150;8.568;2023-05-10T09:43:49;17.80;99.90
14079;DHT22;7115;50.150;8.568;2023-05-10T09:46:16;17.90;99.90
14079;DHT22;7115;50.150;8.568;2023-05-10T09:48:44;18.00;99.90
14079;DHT22;7115;50.150;8.568;2023-05-10T09:51:18;18.20;99.90
14079;DHT22;7115;50.150;8.568;2023-05-10T09:53:45;18.30;99.90
14079;DHT22;7115;50.150;8.568;2023-05-10T09:56:12;18.40;99.90
14079;DHT22;7115;50.150;8.568;2023-05-10T09:58:39;18.50;99.90
14079;DHT22;7115;50.150;8.568;2023-05-10T10:01:12;18.40;99.90
14079;DHT22;7115;50.150;8.568;2023-05-10T10:03:42;18.30;99.90
14079;DHT22;7115;50.150;8.568;2023-05-10T10:06:09;18.10;99.90
14079;DHT22;7115;50.150;8.568;2023-05-10T10:08:55;17.80;99.90
14079;DHT22;7115;50.150;8.568;2023-05-10T10:11:24;17.60;99.90
14079;DHT22;7115;50.150;8.568;2023-05-10T10:13:51;17.50;99.90
14079;DHT22;7115;50.150;8.568;2023-05-10T10:16:20;17.50;99.90
14079;DHT22;7115;50.150;8.568;2023-05-10T10:18:48;17.40;99.90
14079;DHT22;7115;50.150;8.568;2023-05-10T10:21:16;17.30;99.90
14079;DHT22;7115;50.150;8.568;2023-05-10T10:23:43;17.30;99.90
14079;DHT22;7115;50.150;8.568;2023-05-10T10:26:11;17.20;99.90
14079;DHT22;7115;50.150;8.568;2023-05-10T10:28:43;17.20;99.90
14079;DHT22;7115;50.150;8.568;2023-05-10T10:31:23;17.20;99.90
14079;DHT22;7115;50.150;8.568;2023-05-10T10:34:00;17.20;99.90
14079;DHT22;7115;50.150;8.568;2023-05-10T10:36:27;17.00;99.90
14079;DHT22;7115;50.150;8.568;2023-05-10T10:38:55;17.00;99.90
14079;DHT22;7115;50.150;8.568;2023-05-10T10:41:31;16.90;99.90
14079;DHT22;7115;50.150;8.568;2023-05-10T10:44:30;16.70;99.90
14079;DHT22;7115;50.150;8.568;2023-05-10T10:47:24;16.60;99.90
14079;DHT22;7115;50.150;8.568;2023-05-10T10:49:52;16.50;99.90
14079;DHT22;7115;50.150;8.568;2023-05-10T10:52:31;16.40;99.90
14079;DHT22;7115;50.150;8.568;2023-05-10T10:55:02;16.40;99.90
14079;DHT22;7115;50.150;8.568;2023-05-10T10:57:32;16.40;99.90
14079;DHT22;7115;50.150;8.568;2023-05-10T11:00:21;16.40;99.90
14079;DHT22;7115;50.150;8.568;2023-05-10T11:02:51;16.40;99.90
14079;DHT22;7115;50.150;8.568;2023-05-10T11:05:43;16.30;99.90
14079;DHT22;7115;50.150;8.568;2023-05-10T11:08:19;16.20;99.90
14079;DHT22;7115;50.150;8.568;2023-05-10T11:10:54;16.30;99.90
14079;DHT22;7115;50.150;8.568;2023-05-10T11:13:37;16.30;99.90
14079;DHT22;7115;50.150;8.568;2023-05-10T11:16:12;16.40;99.90
14079;DHT22;7115;50.150;8.568;2023-05-10T11:18:52;16.40;99.90
14079;DHT22;7115;50.150;8.568;2023-05-10T11:21:20;16.50;99.90
14079;DHT22;7115;50.150;8.568;2023-05-10T11:23:52;16.60;99.90
14079;DHT22;7115;50.150;8.568;2023-05-10T11:26:19;16.80;99.90
14079;DHT22;7115;50.150;8.568;2023-05-10T11:28:49;16.90;99.90
14079;DHT22;7115;50.150;8.568;2023-05-10T11:31:17;16.90;99.90
14079;DHT22;7115;50.150;8.568;2023-05-10T11:33:47;17.00;99.90
14079;DHT22;7115;50.150;8.568;2023-05-10T11:36:15;17.00;99.90
14079;DHT22;7115;50.150;8.568;2023-05-10T11:38:42;17.10;99.90
14079;DHT22;7115;50.150;8.568;2023-05-10T11:41:09;17.10;99.90
14079;DHT22;7115;50.150;8.568;2023-05-10T11:43:37;17.20;99.90
14079;DHT22;7115;50.150;8.568;2023-05-10T11:46:05;17.20;99.90
14079;DHT22;7115;50.150;8.568;2023-05-10T11:48:33;17.20;99.90
14079;DHT22;7115;50.150;8.568;2023-05-10T11:51:02;17.30;99.90
14079;DHT22;7115;50.150;8.568;2023-05-10T11:53:30;17.50;99.90
14079;DHT22;7115;50.150;8.568;2023-05-10T11:56:02;17.50;99.90
14079;DHT22;7115;50.150;8.568;2023-05-10T11:58:30;17.60;99.90
14079;DHT22;7115;50.150;8.568;2023-05-10T12:00:58;17.80;99.90
14079;DHT22;7115;50.150;8.568;2023-05-10T12:03:25;17.80;99.90
14079;DHT22;7115;50.150;8.568;2023-05-10T12:05:52;17.90;99.90
14079;DHT22;7115;50.150;8.568;2023-05-10T12:08:22;17.90;99.90
14079;DHT22;7115;50.150;8.568;2023-05-10T12:10:49;17.90;99.90
14079;DHT22;7115;50.150;8.568;2023-05-10T12:13:18;18.00;99.90
14079;DHT22;7115;50.150;8.568;2023-05-10T12:15:46;18.10;99.90
14079;DHT22;7115;50.150;8.568;2023-05-10T12:18:14;18.20;99.90
14079;DHT22;7115;50.150;8.568;2023-05-10T12:20:41;18.40;99.90
14079;DHT22;7115;50.150;8.568;2023-05-10T12:23:09;18.50;99.90
14079;DHT22;7115;50.150;8.568;2023-05-10T12:25:38;18.70;99.90
14079;DHT22;7115;50.150;8.568;2023-05-10T12:28:07;18.80;99.90
14079;DHT22;7115;50.150;8.568;2023-05-10T12:30:36;19.10;99.90
14079;DHT22;7115;50.150;8.568;2023-05-10T12:33:10;19.40;99.90
14079;DHT22;7115;50.150;8.568;2023-05-10T12:35:45;19.50;99.90
14079;DHT22;7115;50.150;8.568;2023-05-10T12:38:25;19.60;99.90
14079;DHT22;7115;50.150;8.568;2023-05-10T12:40:54;19.60;99.90
14079;DHT22;7115;50.150;8.568;2023-05-10T12:43:22;19.60;99.90
14079;DHT22;7115;50.150;8.568;2023-05-10T12:45:49;19.60;99.90
14079;DHT22;7115;50.150;8.568;2023-05-10T12:48:16;19.60;99.90
14079;DHT22;7115;50.150;8.568;2023-05-10T12:50:43;19.40;99.90
14079;DHT22;7115;50.150;8.568;2023-05-10T12:53:10;19.40;99.90
14079;DHT22;7115;50.150;8.568;2023-05-10T12:55:37;19.30;99.90
14079;DHT22;7115;50.150;8.568;2023-05-10T12:58:05;19.20;99.90
14079;DHT22;7115;50.150;8.568;2023-05-10T13:00:32;19.30;99.90
14079;DHT22;7115;50.150;8.568;2023-05-10T13:02:59;19.30;99.90
14079;DHT22;7115;50.150;8.568;2023-05-10T13:05:26;19.30;99.90
14079;DHT22;7115;50.150;8.568;2023-05-10T13:07:53;19.30;99.90
14079;DHT22;7115;50.150;8.568;2023-05-10T13:10:20;19.30;99.90
14079;DHT22;7115;50.150;8.568;2023-05-10T13:12:47;19.20;99.90
14079;DHT22;7115;50.150;8.568;2023-05-10T13:15:15;19.10;99.90
14079;DHT22;7115;50.150;8.568;2023-05-10T13:17:42;18.90;99.90
14079;DHT22;7115;50.150;8.568;2023-05-10T13:20:10;18.90;99.90
14079;DHT22;7115;50.150;8.568;2023-05-10T13:22:37;18.80;99.90
14079;DHT22;7115;50.150;8.568;2023-05-10T13:25:06;18.70;99.90
14079;DHT22;7115;50.150;8.568;2023-05-10T13:27:33;18.60;99.90
14079;DHT22;7115;50.150;8.568;2023-05-10T13:30:01;18.60;99.90
14079;DHT22;7115;50.150;8.568;2023-05-10T13:32:29;18.60;99.90
14079;DHT22;7115;50.150;8.568;2023-05-10T13:34:56;18.50;99.90
14079;DHT22;7115;50.150;8.568;2023-05-10T13:37:23;18.40;99.90
14079;DHT22;7115;50.150;8.568;2023-05-10T13:39:50;18.40;99.90
14079;DHT22;7115;50.150;8.568;2023-05-10T13:42:17;18.40;99.90
14079;DHT22;7115;50.150;8.568;2023-05-10T13:44:44;18.40;99.90
14079;DHT22;7115;50.150;8.568;2023-05-10T13:47:11;18.40;99.90
14079;DHT22;7115;50.150;8.568;2023-05-10T13:49:39;18.40;99.90
14079;DHT22;7115;50.150;8.568;2023-05-10T13:52:06;18.40;99.90
14079;DHT22;7115;50.150;8.568;2023-05-10T13:54:37;18.50;99.90
14079;DHT22;7115;50.150;8.568;2023-05-10T13:57:05;18.50;99.90
14079;DHT22;7115;50.150;8.568;2023-05-10T13:59:32;18.50;99.90
14079;DHT22;7115;50.150;8.568;2023-05-10T14:01:59;18.50;99.90
14079;DHT22;7115;50.150;8.568;2023-05-10T14:04:27;18.60;99.90
14079;DHT22;7115;50.150;8.568;2023-05-10T14:06:55;18.60;99.90
14079;DHT22;7115;50.150;8.568;2023-05-10T14:09:22;18.70;99.90
14079;DHT22;7115;50.150;8.568;2023-05-10T14:11:49;18.70;99.90
14079;DHT22;7115;50.150;8.568;2023-05-10T14:14:16;18.70;99.90
14079;DHT22;7115;50.150;8.568;2023-05-10T14:16:44;18.80;99.90
14079;DHT22;7115;50.150;8.568;2023-05-10T14:19:11;18.70;99.90
14079;DHT22;7115;50.150;8.568;2023-05-10T14:21:38;18.80;99.90
14079;DHT22;7115;50.150;8.568;2023-05-10T14:24:06;18.80;99.90
14079;DHT22;7115;50.150;8.568;2023-05-10T14:26:33;18.80;99.90
14079;DHT22;7115;50.150;8.568;2023-05-10T14:29:01;18.90;99.90
14079;DHT22;7115;50.150;8.568;2023-05-10T14:31:28;18.90;99.90
14079;DHT22;7115;50.150;8.568;2023-05-10T14:33:57;19.00;99.90
14079;DHT22;7115;50.150;8.568;2023-05-10T14:36:24;18.90;99.90
14079;DHT22;7115;50.150;8.568;2023-05-10T14:38:51;19.00;99.90
14079;DHT22;7115;50.150;8.568;2023-05-10T14:41:19;19.00;99.90
14079;DHT22;7115;50.150;8.568;2023-05-10T14:43:46;19.10;99.90
14079;DHT22;7115;50.150;8.568;2023-05-10T14:46:13;19.10;99.90
14079;DHT22;7115;50.150;8.568;2023-05-10T14:48:40;19.10;99.90
14079;DHT22;7115;50.150;8.568;2023-05-10T14:51:07;19.10;99.90
14079;DHT22;7115;50.150;8.568;2023-05-10T14:53:33;19.10;99.90
14079;DHT22;7115;50.150;8.568;2023-05-10T14:56:01;19.20;99.90
14079;DHT22;7115;50.150;8.568;2023-05-10T14:58:29;19.20;99.90
14079;DHT22;7115;50.150;8.568;2023-05-10T15:00:59;19.20;99.90
14079;DHT22;7115;50.150;8.568;2023-05-10T15:03:27;19.20;99.90
14079;DHT22;7115;50.150;8.568;2023-05-10T15:05:56;19.20;99.90
14079;DHT22;7115;50.150;8.568;2023-05-10T15:08:24;19.20;99.90
14079;DHT22;7115;50.150;8.568;2023-05-10T15:10:52;19.30;99.90
14079;DHT22;7115;50.150;8.568;2023-05-10T15:13:19;19.40;99.90
14079;DHT22;7115;50.150;8.568;2023-05-10T15:15:47;19.40;99.90
14079;DHT22;7115;50.150;8.568;2023-05-10T15:18:15;19.50;99.90
14079;DHT22;7115;50.150;8.568;2023-05-10T15:20:42;19.50;99.90
14079;DHT22;7115;50.150;8.568;2023-05-10T15:23:09;19.40;99.90
14079;DHT22;7115;50.150;8.568;2023-05-10T15:25:35;19.40;99.90
14079;DHT22;7115;50.150;8.568;2023-05-10T15:28:04;19.40;99.90
14079;DHT22;7115;50.150;8.568;2023-05-10T15:30:31;19.40;99.90
14079;DHT22;7115;50.150;8.568;2023-05-10T15:32:59;19.40;99.90
14079;DHT22;7115;50.150;8.568;2023-05-10T15:35:26;19.40;99.90
14079;DHT22;7115;50.150;8.568;2023-05-10T15:37:53;19.50;99.90
14079;DHT22;7115;50.150;8.568;2023-05-10T15:40:20;19.60;99.90
14079;DHT22;7115;50.150;8.568;2023-05-10T15:42:47;19.70;99.90
14079;DHT22;7115;50.150;8.568;2023-05-10T15:45:14;19.70;99.90
14079;DHT22;7115;50.150;8.568;2023-05-10T15:47:42;19.80;99.90
14079;DHT22;7115;50.150;8.568;2023-05-10T15:50:12;19.80;99.90
14079;DHT22;7115;50.150;8.568;2023-05-10T15:52:39;20.00;99.90
14079;DHT22;7115;50.150;8.568;2023-05-10T15:55:07;19.90;99.90